Time;durP1;ratioP1;P1;durP2;ratioP2;P2;SDS_P1;SDS_P2;PMS_P1;PMS_P2;Temp;Humidity;BMP_temperature;BMP_pressure;BME280_temperature;BME280_humidity;BME280_pressure;Samples;Min_cycle;Max_cycle;Signal;HPM_P1;HPM_P2
2023/01/02 00:01:05;;;;;;;;;;;;;;;25.83;50.29;98240.23;613446;231;68671;-67
2023/01/02 00:03:33;;;;;;;;;;;;;;;25.83;50.86;98237.54;613413;231;69003;-67
2023/01/02 00:06:02;;;;;;;;;;;;;;;25.82;50.55;98241.33;613481;231;65112;-67
2023/01/02 00:08:30;;;;;;;;;;;;;;;25.81;50.42;98239.69;613270;230;68877;-68
2023/01/02 00:10:57;;;;;;;;;;;;;;;25.80;50.09;98238.89;613488;231;68627;-67
2023/01/02 00:13:25;;;;;;;;;;;;;;;25.80;50.60;98230.02;613460;231;65212;-67
2023/01/02 00:15:52;;;;;;;;;;;;;;;25.78;48.35;98227.61;613471;231;68775;-67
2023/01/02 00:18:20;;;;;;;;;;;;;;;25.78;50.52;98224.92;613434;231;68618;-67
2023/01/02 00:20:47;;;;;;;;;;;;;;;25.79;49.75;98228.41;613468;231;65042;-67
2023/01/02 00:23:14;;;;;;;;;;;;;;;25.77;50.67;98228.67;613515;231;68583;-67
2023/01/02 00:25:42;;;;;;;;;;;;;;;25.77;51.07;98223.28;613399;231;66650;-67
2023/01/02 00:28:09;;;;;;;;;;;;;;;25.77;49.84;98230.56;613412;231;62770;-67
2023/01/02 00:30:37;;;;;;;;;;;;;;;25.76;50.00;98223.58;613416;231;69137;-67
2023/01/02 00:33:06;;;;;;;;;;;;;;;25.75;50.28;98227.33;613461;231;68646;-67
2023/01/02 00:35:33;;;;;;;;;;;;;;;25.74;50.10;98226.53;613498;231;65058;-67
2023/01/02 00:38:01;;;;;;;;;;;;;;;25.74;49.32;98226.53;613476;231;66637;-67
2023/01/02 00:40:28;;;;;;;;;;;;;;;25.74;49.39;98225.72;613453;231;66776;-67
2023/01/02 00:42:56;;;;;;;;;;;;;;;25.73;49.45;98224.92;613450;231;62777;-67
2023/01/02 00:45:23;;;;;;;;;;;;;;;25.72;48.86;98225.98;613447;231;68908;-67
2023/01/02 00:47:51;;;;;;;;;;;;;;;25.71;50.82;98224.38;613504;231;68559;-67
2023/01/02 00:50:18;;;;;;;;;;;;;;;25.69;49.96;98216.56;613508;231;63013;-67
2023/01/02 00:52:46;;;;;;;;;;;;;;;25.69;50.43;98211.18;613433;231;66929;-67
2023/01/02 00:55:13;;;;;;;;;;;;;;;25.69;50.24;98223.84;613466;231;66821;-67
2023/01/02 00:57:41;;;;;;;;;;;;;;;25.68;49.63;98227.63;613450;231;63049;-68
2023/01/02 01:00:09;;;;;;;;;;;;;;;25.67;50.56;98232.20;613447;229;66649;-67
2023/01/02 01:02:36;;;;;;;;;;;;;;;25.67;49.34;98228.69;613520;231;68710;-67
2023/01/02 01:05:04;;;;;;;;;;;;;;;25.66;50.30;98227.88;613455;231;65115;-67
2023/01/02 01:07:31;;;;;;;;;;;;;;;25.65;50.27;98220.09;613445;231;68837;-67
2023/01/02 01:09:59;;;;;;;;;;;;;;;25.65;50.44;98220.09;613477;231;68464;-67
2023/01/02 01:12:26;;;;;;;;;;;;;;;25.65;50.47;98217.41;613421;231;63806;-67
2023/01/02 01:14:54;;;;;;;;;;;;;;;25.63;50.05;98214.97;613519;231;68762;-67
2023/01/02 01:17:21;;;;;;;;;;;;;;;25.62;50.45;98213.37;613409;231;68983;-70
2023/01/02 01:19:48;;;;;;;;;;;;;;;25.62;50.11;98223.34;613447;231;65023;-70
2023/01/02 01:22:16;;;;;;;;;;;;;;;25.61;51.04;98209.05;613457;231;68579;-70
2023/01/02 01:24:43;;;;;;;;;;;;;;;25.60;49.89;98212.83;613437;231;68808;-70
2023/01/02 01:27:11;;;;;;;;;;;;;;;25.59;50.19;98215.78;614020;231;65142;-70
2023/01/02 01:29:39;;;;;;;;;;;;;;;25.58;50.26;98209.59;614687;231;69511;-70
2023/01/02 01:32:06;;;;;;;;;;;;;;;25.58;49.25;98203.41;614706;231;68398;-70
2023/01/02 01:34:34;;;;;;;;;;;;;;;25.58;49.81;98206.09;614723;231;65047;-70
2023/01/02 01:37:01;;;;;;;;;;;;;;;25.57;49.80;98201.80;614695;231;68248;-67
2023/01/02 01:39:29;;;;;;;;;;;;;;;25.57;48.77;98199.12;614699;231;68772;-67
2023/01/02 01:41:58;;;;;;;;;;;;;;;25.56;49.06;98208.25;614678;231;65126;-67
2023/01/02 01:44:43;;;;;;;;;;;;;;;25.55;50.51;98202.06;614701;231;66519;-70
2023/01/02 01:47:29;;;;;;;;;;;;;;;25.53;50.63;98198.03;614707;231;66224;-70
2023/01/02 01:49:58;;;;;;;;;;;;;;;25.52;50.07;98199.92;614653;231;64921;-70
2023/01/02 01:52:27;;;;;;;;;;;;;;;25.52;50.61;98199.12;613741;230;68309;-70
2023/01/02 01:55:02;;;;;;;;;;;;;;;25.50;50.24;98194.00;614757;231;68466;-71
2023/01/02 01:57:31;;;;;;;;;;;;;;;25.50;50.59;98191.30;614594;230;64973;-70
2023/01/02 02:00:00;;;;;;;;;;;;;;;25.49;48.69;98191.59;614698;231;66429;-71
2023/01/02 02:02:29;;;;;;;;;;;;;;;25.49;51.03;98180.83;614627;231;66592;-71
2023/01/02 02:04:58;;;;;;;;;;;;;;;25.49;51.46;98183.52;614670;231;64906;-70
2023/01/02 02:07:26;;;;;;;;;;;;;;;25.46;50.44;98174.11;614643;231;68758;-70
2023/01/02 02:09:55;;;;;;;;;;;;;;;25.44;51.25;98174.36;614722;231;68634;-67
2023/01/02 02:12:23;;;;;;;;;;;;;;;25.45;51.57;98172.47;614668;231;62911;-67
2023/01/02 02:14:51;;;;;;;;;;;;;;;25.44;51.53;98171.67;614647;231;66692;-67
2023/01/02 02:17:32;;;;;;;;;;;;;;;25.43;49.29;98169.27;614653;231;66556;-67
2023/01/02 02:20:08;;;;;;;;;;;;;;;25.42;51.08;98165.75;614664;231;65392;-67
2023/01/02 02:22:36;;;;;;;;;;;;;;;25.41;50.70;98166.03;614662;231;66424;-67
2023/01/02 02:25:21;;;;;;;;;;;;;;;25.40;50.28;98167.09;614422;230;66417;-67
2023/01/02 02:28:06;;;;;;;;;;;;;;;25.40;51.59;98162.55;613761;231;64951;-67
2023/01/02 02:30:38;;;;;;;;;;;;;;;25.38;51.34;98159.31;613462;231;66433;-68
2023/01/02 02:33:11;;;;;;;;;;;;;;;25.38;50.75;98145.86;613379;231;66822;-66
2023/01/02 02:35:42;;;;;;;;;;;;;;;25.37;51.05;98146.95;613243;230;64954;-67
2023/01/02 02:38:17;;;;;;;;;;;;;;;25.36;50.96;98150.70;613427;231;66417;-67
2023/01/02 02:40:56;;;;;;;;;;;;;;;25.35;51.08;98142.91;612587;231;68591;-71
2023/01/02 02:43:34;;;;;;;;;;;;;;;25.35;51.32;98146.41;613496;231;63035;-71
2023/01/02 02:46:13;;;;;;;;;;;;;;;25.34;48.66;98155.53;613405;231;68777;-71
2023/01/02 02:48:44;;;;;;;;;;;;;;;25.33;51.35;98159.31;613423;230;68691;-67
2023/01/02 02:51:13;;;;;;;;;;;;;;;25.34;50.87;98162.81;613246;230;63041;-67
2023/01/02 02:53:43;;;;;;;;;;;;;;;25.32;49.97;98152.33;613382;231;70589;-67
2023/01/02 02:56:12;;;;;;;;;;;;;;;25.31;51.75;98150.70;613501;231;68791;-67
2023/01/02 02:58:40;;;;;;;;;;;;;;;25.31;51.53;98147.20;613459;231;62878;-67
2023/01/02 03:01:09;;;;;;;;;;;;;;;25.30;49.45;98159.06;613474;231;66637;-68
2023/01/02 03:03:36;;;;;;;;;;;;;;;25.29;50.96;98152.88;613377;230;66589;-67
2023/01/02 03:06:15;;;;;;;;;;;;;;;25.28;50.05;98151.25;613473;231;62801;-67
2023/01/02 03:09:02;;;;;;;;;;;;;;;25.27;50.99;98149.64;613498;231;68793;-67
2023/01/02 03:11:32;;;;;;;;;;;;;;;25.25;49.33;98155.28;613200;230;68704;-67
2023/01/02 03:14:10;;;;;;;;;;;;;;;25.25;50.61;98141.83;612610;231;65083;-68
2023/01/02 03:16:41;;;;;;;;;;;;;;;25.25;51.25;98146.41;613270;230;68846;-67
2023/01/02 03:19:29;;;;;;;;;;;;;;;25.24;50.61;98148.30;613454;231;69146;-67
2023/01/02 03:21:58;;;;;;;;;;;;;;;25.24;51.14;98150.19;613047;230;62996;-67
2023/01/02 03:24:27;;;;;;;;;;;;;;;25.23;50.66;98151.25;613461;231;66683;-70
2023/01/02 03:26:57;;;;;;;;;;;;;;;25.21;49.74;98148.84;613866;231;68888;-70
2023/01/02 03:29:29;;;;;;;;;;;;;;;25.21;51.60;98148.84;614743;231;64871;-70
2023/01/02 03:31:58;;;;;;;;;;;;;;;25.19;49.95;98151.00;614326;230;68719;-70
2023/01/02 03:34:27;;;;;;;;;;;;;;;25.19;50.08;98144.81;614695;231;68825;-70
2023/01/02 03:36:56;;;;;;;;;;;;;;;25.19;50.08;98150.20;614700;231;63078;-70
2023/01/02 03:39:25;;;;;;;;;;;;;;;25.17;50.30;98139.69;614696;231;67166;-70
2023/01/02 03:41:56;;;;;;;;;;;;;;;25.18;49.87;98143.18;614756;231;68420;-70
2023/01/02 03:44:25;;;;;;;;;;;;;;;25.16;49.14;98140.78;614708;231;64826;-70
2023/01/02 03:46:54;;;;;;;;;;;;;;;25.15;48.57;98138.34;614644;230;68863;-70
2023/01/02 03:49:23;;;;;;;;;;;;;;;25.14;49.87;98142.89;614568;230;68859;-70
2023/01/02 03:51:51;;;;;;;;;;;;;;;25.14;49.99;98142.09;614682;231;64915;-70
2023/01/02 03:54:19;;;;;;;;;;;;;;;25.14;50.21;98142.09;614686;231;68692;-71
2023/01/02 03:56:56;;;;;;;;;;;;;;;25.13;50.01;98145.88;614717;231;68713;-70
2023/01/02 03:59:37;;;;;;;;;;;;;;;25.11;49.67;98143.44;614696;231;63063;-70
2023/01/02 04:02:12;;;;;;;;;;;;;;;25.12;50.52;98144.24;614604;230;68727;-70
2023/01/02 04:04:42;;;;;;;;;;;;;;;25.12;49.89;98144.24;614701;231;66798;-70
2023/01/02 04:07:13;;;;;;;;;;;;;;;25.10;50.38;98141.01;600359;230;63049;-70
2023/01/02 04:09:43;;;;;;;;;;;;;;;25.09;49.47;98148.28;614680;231;68479;-70
2023/01/02 04:12:12;;;;;;;;;;;;;;;25.09;50.20;98153.66;614715;231;68709;-70
2023/01/02 04:14:44;;;;;;;;;;;;;;;25.08;50.17;98153.95;614685;231;65084;-70
2023/01/02 04:17:13;;;;;;;;;;;;;;;25.09;50.91;98155.55;614312;230;69090;-70
2023/01/02 04:19:48;;;;;;;;;;;;;;;25.06;50.06;98151.52;614677;231;68683;-70
2023/01/02 04:22:22;;;;;;;;;;;;;;;25.06;51.20;98150.71;614679;231;65042;-70
2023/01/02 04:25:01;;;;;;;;;;;;;;;25.05;49.63;98149.11;614705;231;68834;-70
2023/01/02 04:27:30;;;;;;;;;;;;;;;25.03;49.97;98150.16;614257;230;68688;-70
2023/01/02 04:29:57;;;;;;;;;;;;;;;25.03;49.60;98147.48;614656;231;65085;-70
2023/01/02 04:32:32;;;;;;;;;;;;;;;25.02;49.49;98150.45;614674;231;68959;-70
2023/01/02 04:35:01;;;;;;;;;;;;;;;25.01;50.13;98151.52;614688;231;68722;-70
2023/01/02 04:37:33;;;;;;;;;;;;;;;25.01;49.36;98148.82;614592;230;65254;-70
2023/01/02 04:40:02;;;;;;;;;;;;;;;25.00;51.25;98142.64;614664;231;66595;-71
2023/01/02 04:42:30;;;;;;;;;;;;;;;24.99;50.46;98150.97;614716;231;67281;-71
2023/01/02 04:44:57;;;;;;;;;;;;;;;24.97;49.71;98148.56;614653;231;63587;-71
2023/01/02 04:47:25;;;;;;;;;;;;;;;24.98;50.38;98150.16;614681;231;69488;-71
2023/01/02 04:49:52;;;;;;;;;;;;;;;24.97;49.80;98159.32;614684;231;66731;-71
2023/01/02 04:52:20;;;;;;;;;;;;;;;24.96;50.22;98157.72;614669;231;65724;-71
2023/01/02 04:54:48;;;;;;;;;;;;;;;24.96;49.40;98159.58;614755;231;68782;-71
2023/01/02 04:57:15;;;;;;;;;;;;;;;24.95;50.66;98153.40;614682;231;68460;-71
2023/01/02 04:59:42;;;;;;;;;;;;;;;24.95;49.76;98160.66;614683;231;65093;-71
2023/01/02 05:02:10;;;;;;;;;;;;;;;24.94;50.48;98162.55;614680;231;66674;-67
2023/01/02 05:04:37;;;;;;;;;;;;;;;24.92;49.71;98171.95;614651;231;67024;-67
2023/01/02 05:07:05;;;;;;;;;;;;;;;24.92;49.77;98178.14;614731;231;62901;-67
2023/01/02 05:09:33;;;;;;;;;;;;;;;24.91;51.98;98179.22;614676;231;69091;-67
2023/01/02 05:12:00;;;;;;;;;;;;;;;24.90;49.16;98176.80;614632;231;68742;-68
2023/01/02 05:14:29;;;;;;;;;;;;;;;24.88;50.36;98182.45;614679;231;63007;-68
2023/01/02 05:16:57;;;;;;;;;;;;;;;24.89;51.73;98181.37;614682;231;68815;-67
2023/01/02 05:19:24;;;;;;;;;;;;;;;24.87;52.00;98180.82;614718;231;68646;-67
2023/01/02 05:24:37;;;;;;;;;;;;;;;24.85;51.62;98179.47;614645;231;68378;-67
2023/01/02 05:27:06;;;;;;;;;;;;;;;24.84;50.35;98185.94;613930;229;46362;-67
2023/01/02 05:29:34;;;;;;;;;;;;;;;24.82;50.97;98194.26;613418;231;65038;-67
2023/01/02 05:32:03;;;;;;;;;;;;;;;24.82;50.33;98194.26;613463;231;68979;-67
2023/01/02 05:34:30;;;;;;;;;;;;;;;24.81;50.22;98200.72;613483;231;68688;-67
2023/01/02 05:36:58;;;;;;;;;;;;;;;24.82;51.60;98202.32;613430;231;65060;-67
2023/01/02 05:39:25;;;;;;;;;;;;;;;24.80;49.43;98199.92;613468;231;66712;-67
2023/01/02 05:41:53;;;;;;;;;;;;;;;24.80;52.54;98205.30;613418;231;68725;-67
2023/01/02 05:44:20;;;;;;;;;;;;;;;24.78;50.40;98203.95;613484;231;62954;-67
2023/01/02 05:46:47;;;;;;;;;;;;;;;24.78;50.60;98209.33;613553;231;66355;-67
2023/01/02 05:49:15;;;;;;;;;;;;;;;24.77;50.67;98205.00;613433;231;66435;-67
2023/01/02 05:51:42;;;;;;;;;;;;;;;24.76;50.28;98209.58;613455;231;65025;-70
2023/01/02 05:54:10;;;;;;;;;;;;;;;24.75;50.85;98212.55;613419;231;68523;-70
2023/01/02 05:56:37;;;;;;;;;;;;;;;24.73;48.94;98215.48;613466;230;68677;-70
2023/01/02 05:59:07;;;;;;;;;;;;;;;24.75;52.42;98226.79;613476;231;65097;-70
2023/01/02 06:01:35;;;;;;;;;;;;;;;24.73;51.38;98234.31;613490;231;66389;-71
2023/01/02 06:04:02;;;;;;;;;;;;;;;24.73;52.42;98238.88;613462;231;68472;-71
2023/01/02 06:06:31;;;;;;;;;;;;;;;24.71;51.92;98244.51;613463;231;64906;-71
2023/01/02 06:08:59;;;;;;;;;;;;;;;24.70;51.70;98239.41;613448;231;66237;-71
2023/01/02 06:11:28;;;;;;;;;;;;;;;24.70;50.82;98239.41;613474;231;68485;-71
2023/01/02 06:13:55;;;;;;;;;;;;;;;24.70;50.75;98250.17;613494;231;65097;-71
2023/01/02 06:16:23;;;;;;;;;;;;;;;24.69;50.95;98237.78;613436;231;68962;-67
2023/01/02 06:18:51;;;;;;;;;;;;;;;24.68;52.95;98242.36;613439;231;68958;-67
2023/01/02 06:21:20;;;;;;;;;;;;;;;24.67;52.68;98239.95;613447;231;65074;-68
2023/01/02 06:23:48;;;;;;;;;;;;;;;24.65;53.48;98242.09;613402;231;66555;-68
2023/01/02 06:26:19;;;;;;;;;;;;;;;24.65;53.65;98247.46;613539;231;66662;-67
2023/01/02 06:28:48;;;;;;;;;;;;;;;24.63;53.31;98249.59;614656;231;62825;-67
2023/01/02 06:31:16;;;;;;;;;;;;;;;24.64;51.72;98240.48;614651;231;69095;-67
2023/01/02 06:33:44;;;;;;;;;;;;;;;24.63;52.55;98252.29;614676;231;66608;-67
2023/01/02 06:36:16;;;;;;;;;;;;;;;24.61;52.16;98244.51;614694;231;64889;-68
2023/01/02 06:38:44;;;;;;;;;;;;;;;24.61;50.58;98243.67;614666;231;68499;-68
2023/01/02 06:41:12;;;;;;;;;;;;;;;24.61;52.56;98243.67;614714;231;68564;-68
2023/01/02 06:43:44;;;;;;;;;;;;;;;24.59;50.73;98247.45;614599;231;64697;-68
2023/01/02 06:46:12;;;;;;;;;;;;;;;24.58;52.23;98237.78;614645;231;66784;-68
2023/01/02 06:48:41;;;;;;;;;;;;;;;24.56;50.57;98233.73;614666;231;68585;-68
2023/01/02 06:51:10;;;;;;;;;;;;;;;24.57;54.01;98238.03;614645;231;64890;-67
2023/01/02 06:53:40;;;;;;;;;;;;;;;24.55;52.59;98238.31;614724;231;68963;-68
2023/01/02 06:56:08;;;;;;;;;;;;;;;24.54;51.72;98235.88;614621;231;68552;-68
2023/01/02 06:58:36;;;;;;;;;;;;;;;24.54;51.65;98239.37;614667;231;65218;-68
2023/01/02 07:01:04;;;;;;;;;;;;;;;24.54;53.10;98246.63;614702;231;68644;-68
2023/01/02 07:03:32;;;;;;;;;;;;;;;24.52;51.80;98241.50;614657;231;68470;-68
2023/01/02 07:06:01;;;;;;;;;;;;;;;24.50;50.66;98240.15;614708;231;62778;-68
2023/01/02 07:08:31;;;;;;;;;;;;;;;24.51;52.02;98237.21;614494;230;68929;-68
2023/01/02 07:11:12;;;;;;;;;;;;;;;24.51;51.97;98239.90;614629;231;66446;-68
2023/01/02 07:13:40;;;;;;;;;;;;;;;24.50;51.06;98240.98;614654;231;64991;-67
2023/01/02 07:16:09;;;;;;;;;;;;;;;24.50;53.47;98240.15;614654;231;68926;-67
2023/01/02 07:18:37;;;;;;;;;;;;;;;24.48;52.01;98237.74;614638;231;68815;-67
2023/01/02 07:21:05;;;;;;;;;;;;;;;24.48;52.79;98235.05;614677;231;65043;-68
2023/01/02 07:23:33;;;;;;;;;;;;;;;24.48;52.52;98231.56;614649;231;68798;-68
2023/01/02 07:26:01;;;;;;;;;;;;;;;24.48;52.90;98232.37;614652;231;68416;-67
2023/01/02 07:28:29;;;;;;;;;;;;;;;24.47;53.54;98232.62;613432;231;62985;-68
2023/01/02 07:30:58;;;;;;;;;;;;;;;24.46;53.53;98229.13;613440;231;68728;-68
2023/01/02 07:33:27;;;;;;;;;;;;;;;24.46;53.32;98229.13;613072;230;68950;-68
2023/01/02 07:35:58;;;;;;;;;;;;;;;24.46;53.97;98228.33;615750;230;62768;-68
2023/01/02 07:38:25;;;;;;;;;;;;;;;24.45;51.48;98234.78;616402;230;66598;-68
2023/01/02 07:40:53;;;;;;;;;;;;;;;24.44;53.26;98225.89;616357;230;66493;-68
2023/01/02 07:43:21;;;;;;;;;;;;;;;24.44;52.37;98228.58;616347;230;62739;-68
2023/01/02 07:45:48;;;;;;;;;;;;;;;24.43;50.60;98226.95;616357;230;66384;-68
2023/01/02 07:48:16;;;;;;;;;;;;;;;24.44;53.76;98238.52;616371;229;69826;-68
2023/01/02 07:50:43;;;;;;;;;;;;;;;24.43;53.07;98224.26;616173;230;64830;-68
2023/01/02 07:53:10;;;;;;;;;;;;;;;24.42;53.45;98224.51;616374;230;69165;-70
2023/01/02 07:55:40;;;;;;;;;;;;;;;24.41;54.72;98225.59;616384;230;68575;-67
2023/01/02 07:58:07;;;;;;;;;;;;;;;24.41;52.58;98221.02;616242;230;64863;-69
2023/01/02 08:00:35;;;;;;;;;;;;;;;24.40;52.40;98230.16;616384;230;69169;-67
2023/01/02 08:03:02;;;;;;;;;;;;;;;24.41;52.73;98217.53;616367;230;68525;-67
2023/01/02 08:05:31;;;;;;;;;;;;;;;24.40;53.06;98211.36;616255;230;64856;-70
2023/01/02 08:07:58;;;;;;;;;;;;;;;24.39;53.05;98212.44;616212;230;66549;-68
2023/01/02 08:10:26;;;;;;;;;;;;;;;24.38;51.96;98205.43;615660;230;66489;-73
2023/01/02 08:12:53;;;;;;;;;;;;;;;24.37;53.74;98206.52;616251;230;63714;-72
2023/01/02 08:15:21;;;;;;;;;;;;;;;24.35;52.78;98206.77;616369;230;66466;-76
2023/01/02 08:17:50;;;;;;;;;;;;;;;24.33;49.54;98197.35;616362;230;66479;-73
2023/01/02 08:20:17;;;;;;;;;;;;;;;24.34;50.50;98196.30;616372;228;64939;-77
2023/01/02 08:22:45;;;;;;;;;;;;;;;24.36;51.89;98196.81;616141;230;69869;-76
2023/01/02 08:25:12;;;;;;;;;;;;;;;24.35;51.40;98184.47;603678;230;71717;-75
2023/01/02 08:27:39;;;;;;;;;;;;;;;24.35;53.06;98182.58;613799;230;62676;-74
2023/01/02 08:30:08;;;;;;;;;;;;;;;24.36;51.85;98186.08;614877;230;71888;-69
2023/01/02 08:32:37;;;;;;;;;;;;;;;24.36;52.54;98189.59;614641;230;66447;-77
2023/01/02 08:35:05;;;;;;;;;;;;;;;24.35;49.93;98179.90;614477;231;65401;-68
2023/01/02 08:37:33;;;;;;;;;;;;;;;24.35;51.62;98189.84;614379;231;68680;-69
2023/01/02 08:40:00;;;;;;;;;;;;;;;24.34;53.16;98186.36;614661;231;68324;-67
2023/01/02 08:42:28;;;;;;;;;;;;;;;24.32;52.57;98191.17;614571;231;64903;-71
2023/01/02 08:44:55;;;;;;;;;;;;;;;24.30;53.04;98179.87;614609;231;68963;-68
2023/01/02 08:47:23;;;;;;;;;;;;;;;24.29;53.93;98175.59;614489;231;66817;-67
2023/01/02 08:49:50;;;;;;;;;;;;;;;24.27;53.55;98176.92;614566;231;62723;-65
2023/01/02 08:52:18;;;;;;;;;;;;;;;24.27;55.79;98155.44;614569;231;68863;-67
2023/01/02 08:54:46;;;;;;;;;;;;;;;24.25;49.21;98173.69;614410;231;68638;-66
2023/01/02 08:57:14;;;;;;;;;;;;;;;24.24;52.34;98169.40;614440;231;64950;-67
2023/01/02 08:59:41;;;;;;;;;;;;;;;24.24;52.17;98164.83;613761;231;68800;-66
2023/01/02 09:02:10;;;;;;;;;;;;;;;24.24;52.27;98164.02;614090;231;66519;-74
2023/01/02 09:04:38;;;;;;;;;;;;;;;24.23;52.54;98163.22;614655;231;62999;-72
2023/01/02 09:07:05;;;;;;;;;;;;;;;24.24;54.23;98158.66;614590;231;66344;-71
2023/01/02 09:09:33;;;;;;;;;;;;;;;24.23;53.76;98160.54;614514;231;66551;-69
2023/01/02 09:12:00;;;;;;;;;;;;;;;24.24;53.23;98161.34;614440;231;63784;-72
2023/01/02 09:14:28;;;;;;;;;;;;;;;24.23;52.81;98154.36;614601;231;69190;-72
2023/01/02 09:16:56;;;;;;;;;;;;;;;24.23;51.41;98154.36;614605;231;66676;-71
2023/01/02 09:19:25;;;;;;;;;;;;;;;24.20;52.22;98144.13;613793;231;64929;-73
2023/01/02 09:21:52;;;;;;;;;;;;;;;24.19;54.58;98137.95;614495;231;68696;-72
2023/01/02 09:24:20;;;;;;;;;;;;;;;24.15;53.11;98136.88;614510;231;66518;-72
2023/01/02 09:26:47;;;;;;;;;;;;;;;24.13;51.38;98137.12;614463;231;65131;-72
2023/01/02 09:29:15;;;;;;;;;;;;;;;24.13;53.50;98130.95;615160;230;66383;-71
2023/01/02 09:31:42;;;;;;;;;;;;;;;24.12;51.11;98126.67;613914;230;69708;-71
2023/01/02 09:34:10;;;;;;;;;;;;;;;24.12;52.64;98122.09;614918;230;65313;-71
2023/01/02 09:36:37;;;;;;;;;;;;;;;24.11;50.91;98120.47;614901;230;68828;-71
2023/01/02 09:39:05;;;;;;;;;;;;;;;24.13;50.92;98121.02;614906;230;68740;-69
2023/01/02 09:41:40;;;;;;;;;;;;;;;24.14;53.17;98119.13;615028;230;65126;-73
2023/01/02 09:44:10;;;;;;;;;;;;;;;24.12;52.49;98116.73;614957;229;68696;-73
2023/01/02 09:46:45;;;;;;;;;;;;;;;24.12;52.84;98111.36;614959;230;68557;-73
2023/01/02 09:49:14;;;;;;;;;;;;;;;24.13;51.76;98121.02;614923;230;62839;-71
2023/01/02 09:51:43;;;;;;;;;;;;;;;24.12;52.62;98108.67;614977;230;68820;-71
2023/01/02 09:54:12;;;;;;;;;;;;;;;24.13;51.88;98107.59;614931;230;68145;-68
2023/01/02 09:56:42;;;;;;;;;;;;;;;24.15;50.97;98100.08;612143;230;65048;-71
2023/01/02 09:59:14;;;;;;;;;;;;;;;24.15;53.30;98100.08;614969;230;68452;-65
2023/01/02 10:01:55;;;;;;;;;;;;;;;24.18;52.60;98096.06;614802;230;68521;-71
2023/01/02 10:04:28;;;;;;;;;;;;;;;24.19;51.50;98094.17;599479;230;64918;-71
2023/01/02 10:07:02;;;;;;;;;;;;;;;24.20;53.36;98090.41;614905;230;49411;-70
2023/01/02 10:09:33;;;;;;;;;;;;;;;24.19;50.88;98089.60;614829;230;47131;-70
2023/01/02 10:12:20;;;;;;;;;;;;;;;24.19;50.81;98080.74;614312;230;64903;-71
2023/01/02 10:14:50;;;;;;;;;;;;;;;24.20;51.75;98068.91;614961;230;68506;-71
2023/01/02 10:17:18;;;;;;;;;;;;;;;24.23;54.02;98063.04;614926;230;73876;-71
2023/01/02 10:20:06;;;;;;;;;;;;;;;24.23;54.17;98065.73;614983;230;65100;-71
2023/01/02 10:22:38;;;;;;;;;;;;;;;24.24;53.09;98064.64;614626;230;68488;-71
2023/01/02 10:25:07;;;;;;;;;;;;;;;24.25;51.34;98056.30;614932;230;68631;-71
2023/01/02 10:27:38;;;;;;;;;;;;;;;24.25;52.58;98056.30;614140;230;44799;-70
2023/01/02 10:30:16;;;;;;;;;;;;;;;24.26;53.73;98052.56;609251;231;66896;-70
2023/01/02 10:32:45;;;;;;;;;;;;;;;24.27;53.20;98050.67;613631;230;66458;-70
2023/01/02 10:35:20;;;;;;;;;;;;;;;24.28;52.14;98046.91;613613;230;62979;-70
2023/01/02 10:37:47;;;;;;;;;;;;;;;24.30;52.02;98042.08;613520;230;68769;-69
2023/01/02 10:40:15;;;;;;;;;;;;;;;24.31;50.21;98036.45;613713;231;67317;-69
2023/01/02 10:42:43;;;;;;;;;;;;;;;24.33;51.35;98031.59;613636;231;62913;-70
2023/01/02 10:45:15;;;;;;;;;;;;;;;24.33;51.07;98020.84;613714;231;66689;-70
2023/01/02 10:47:43;;;;;;;;;;;;;;;24.34;52.26;98021.67;613690;231;68745;-71
2023/01/02 10:50:12;;;;;;;;;;;;;;;24.34;52.21;98011.73;613601;231;65049;-67
2023/01/02 10:52:44;;;;;;;;;;;;;;;24.36;52.80;98006.91;613685;231;66541;-71
2023/01/02 10:55:12;;;;;;;;;;;;;;;24.38;53.12;98004.73;613721;231;66430;-72
2023/01/02 10:57:43;;;;;;;;;;;;;;;24.38;53.04;98009.30;613723;231;63001;-73
2023/01/02 11:00:19;;;;;;;;;;;;;;;24.39;52.55;97997.50;613700;231;68725;-74
2023/01/02 11:02:57;;;;;;;;;;;;;;;24.43;50.98;97995.87;613742;231;68537;-70
2023/01/02 11:05:27;;;;;;;;;;;;;;;24.47;51.08;97996.99;613692;231;62307;-72
2023/01/02 11:07:55;;;;;;;;;;;;;;;24.50;51.05;97993.77;613748;231;68588;-72
2023/01/02 11:10:27;;;;;;;;;;;;;;;24.53;52.14;97990.53;613653;231;65769;-72
2023/01/02 11:12:58;;;;;;;;;;;;;;;24.57;51.83;97988.89;613780;230;44987;-72
2023/01/02 11:15:29;;;;;;;;;;;;;;;24.61;51.03;97988.35;613605;231;66565;-71
2023/01/02 11:17:57;;;;;;;;;;;;;;;24.65;52.00;97978.69;613695;231;67059;-68
2023/01/02 11:20:28;;;;;;;;;;;;;;;24.66;51.38;97974.91;613757;231;64859;-70
2023/01/02 11:22:57;;;;;;;;;;;;;;;24.68;51.18;97978.94;613768;231;66518;-70
2023/01/02 11:25:26;;;;;;;;;;;;;;;24.70;51.13;97975.99;613700;231;68849;-70
2023/01/02 11:27:55;;;;;;;;;;;;;;;24.71;53.03;97972.22;614657;229;64668;-71
2023/01/02 11:30:39;;;;;;;;;;;;;;;24.73;50.46;97965.49;614575;230;68836;-71
2023/01/02 11:33:18;;;;;;;;;;;;;;;24.76;50.97;97953.39;614943;230;68727;-69
2023/01/02 11:35:47;;;;;;;;;;;;;;;24.76;51.65;97953.39;615005;230;65000;-70
2023/01/02 11:38:16;;;;;;;;;;;;;;;24.78;48.77;97948.55;614995;230;68322;-71
2023/01/02 11:40:54;;;;;;;;;;;;;;;24.80;50.99;97949.09;614572;230;68726;-71
2023/01/02 11:46:23;;;;;;;;;;;;;;;24.82;50.33;97941.54;614973;230;68922;-72
2023/01/02 11:48:52;;;;;;;;;;;;;;;24.82;50.96;97936.16;614968;230;66363;-71
2023/01/02 11:51:21;;;;;;;;;;;;;;;24.82;49.61;97933.47;615051;230;65077;-73
2023/01/02 11:53:51;;;;;;;;;;;;;;;24.84;51.10;97928.63;614870;230;68863;-71
2023/01/02 11:56:20;;;;;;;;;;;;;;;24.86;50.09;97934.55;614949;230;69036;-71
2023/01/02 11:58:49;;;;;;;;;;;;;;;24.88;49.63;97923.51;615031;230;64881;-70
2023/01/02 12:01:36;;;;;;;;;;;;;;;24.86;50.16;97915.73;613952;230;68881;-70
2023/01/02 12:04:04;;;;;;;;;;;;;;;24.89;48.45;97917.87;614998;230;66590;-70
2023/01/02 12:06:33;;;;;;;;;;;;;;;24.87;50.21;97920.02;614970;230;63102;-67
2023/01/02 12:09:03;;;;;;;;;;;;;;;24.86;49.71;97920.31;614885;230;68772;-67
2023/01/02 12:11:41;;;;;;;;;;;;;;;24.86;50.21;97912.24;614981;229;68897;-70
2023/01/02 12:14:16;;;;;;;;;;;;;;;24.85;50.12;97916.79;614808;230;62950;-69
2023/01/02 12:16:45;;;;;;;;;;;;;;;24.89;50.16;97911.69;615044;230;68794;-70
2023/01/02 12:19:17;;;;;;;;;;;;;;;24.89;49.92;97906.31;614865;230;68781;-74
2023/01/02 12:22:03;;;;;;;;;;;;;;;24.90;50.34;97900.64;614964;230;62957;-70
2023/01/02 12:24:32;;;;;;;;;;;;;;;24.91;49.18;97904.13;614992;230;68602;-70
2023/01/02 12:27:01;;;;;;;;;;;;;;;24.91;50.44;97906.82;614713;230;68425;-70
2023/01/02 12:29:45;;;;;;;;;;;;;;;24.91;50.07;97906.82;608231;230;65071;-70
2023/01/02 12:32:20;;;;;;;;;;;;;;;24.91;48.88;97902.27;614734;230;68716;-70
2023/01/02 12:34:58;;;;;;;;;;;;;;;24.90;48.08;97897.95;614971;230;69149;-68
2023/01/02 12:37:37;;;;;;;;;;;;;;;24.93;49.29;97897.41;614954;230;62886;-70
2023/01/02 12:40:09;;;;;;;;;;;;;;;24.90;49.98;97895.27;615016;230;66779;-73
2023/01/02 12:42:41;;;;;;;;;;;;;;;24.91;49.92;97896.89;614964;230;68801;-75
2023/01/02 12:45:13;;;;;;;;;;;;;;;24.93;49.97;97889.34;614776;230;64864;-70
2023/01/02 12:47:51;;;;;;;;;;;;;;;24.94;50.29;97899.03;609174;230;68619;-71
2023/01/02 12:50:21;;;;;;;;;;;;;;;24.95;49.63;97891.77;614687;230;66557;-71
2023/01/02 12:52:50;;;;;;;;;;;;;;;24.96;49.82;97893.36;615028;230;65029;-71
2023/01/02 12:55:25;;;;;;;;;;;;;;;24.97;50.09;97893.09;614974;230;68538;-71
2023/01/02 12:58:10;;;;;;;;;;;;;;;24.96;50.05;97894.19;614923;230;68793;-68
2023/01/02 13:00:46;;;;;;;;;;;;;;;24.98;49.99;97894.70;614957;230;65261;-68
2023/01/02 13:03:18;;;;;;;;;;;;;;;24.98;49.75;97886.62;614999;230;69037;-67
2023/01/02 13:05:50;;;;;;;;;;;;;;;24.98;49.94;97892.01;614934;230;68656;-68
2023/01/02 13:08:19;;;;;;;;;;;;;;;24.99;49.75;97893.63;609168;230;65151;-70